Tiempo atmosférico en la estación meteorológica de Sena de Luna, Miñera, León (1120 m.)



Fecha
DESCASC
Temp. máxima en grados centígrados (hora)
DESCASC
Temp. mínima en grados centígrados (hora)
DESCASC
Temp. media en grados centígrados
DESCASC
Racha de viento máxima en m/sg (hora)
DESCASC
Velocidad máxima media en intervalos de 10 minutos(hora)
DESCASC
Precipitaciones diarias en mm
DESCASC
Precipitaciones de 00:00 a 06:00 en mm
DESCASC
Precipitaciones de 06:00 a 12:00 en mm
DESCASC
Precipitaciones de 12:00 a 18:00 en mm
DESCASC
Precipitaciones de 18:00 a 24:00 en mm
DESCASC

Gráficas

Temp. máximas Temp. mínimas Temp. medias Precipitaciones Rachas de viento máximas Velocidades máximas media en intervalos de 10 minutos

Datos horarios

Fecha y hora oficial Temperatura (ºC) Velocidad del viento (km/h) Dirección del viento Racha (km/h) Dirección de racha Precipitación (mm) Presión (hPa) Tendencia (hPa) Humedad (%)
2020-07-02 23:00:00 9.1 15 Norte 33 Noroeste 0 -- -- 81
2020-07-02 22:00:00 9.9 16 Noroeste 31 Norte 0 -- -- 79
2020-07-02 21:00:00 11.1 17 Norte 33 Norte 0 -- -- 77
2020-07-02 20:00:00 12.5 21 Norte 35 Norte 0 -- -- 72
2020-07-02 19:00:00 14 24 Norte 40 Norte 0 -- -- 69
2020-07-02 18:00:00 15 22 Norte 36 Norte 0 -- -- 67
2020-07-02 17:00:00 17.3 20 Norte 34 Noroeste 0 -- -- 60
2020-07-02 16:00:00 18.8 17 Norte 32 Norte 0 -- -- 57
2020-07-02 15:00:00 18.6 18 Noroeste 29 Noroeste 0 -- -- 57
2020-07-02 14:00:00 21.4 8 Noroeste 24 Noroeste 0 -- -- 53
2020-07-02 13:00:00 21.4 10 Noroeste 23 Noroeste 0 -- -- 51
2020-07-02 12:00:00 20.1 4 Noroeste 11 Noroeste 0 -- -- 50
2020-07-02 11:00:00 18.7 5 Sudoeste 10 Sudoeste 0 -- -- 55
2020-07-02 10:00:00 17.8 5 Sur 9 Este 0 -- -- 60
2020-07-02 09:00:00 15.9 4 Este 12 Norte 0 -- -- 69
2020-07-02 08:00:00 13.5 5 Norte 10 Norte 0 -- -- 81
2020-07-02 07:00:00 10.6 4 Nordeste 9 Norte 0 -- -- 95
2020-07-02 06:00:00 11 4 Norte 14 Norte 0 -- -- 94
2020-07-02 05:00:00 10.9 3 Norte 8 Norte 0 -- -- 94
2020-07-02 04:00:00 10 4 Norte 8 Norte 0 -- -- 100
2020-07-02 03:00:00 11.1 2 Nordeste 12 Noroeste 0 -- -- 98
2020-07-02 02:00:00 11.2 3 Norte 6 Nordeste 0 -- -- 98
2020-07-02 01:00:00 12.5 2 Este 9 Noroeste 0 -- -- 89
2020-07-02 00:00:00 14.4 5 Noroeste 12 Noroeste 0 -- -- 82
2020-07-01 23:00:00 15.4 3 Noroeste 11 Norte 0 -- -- 81
2020-07-01 22:00:00 16.8 4 Norte 19 Oeste 0 -- -- 72
2020-07-01 21:00:00 19.3 8 Oeste 23 Noroeste 0 -- -- 63
2020-07-01 20:00:00 21.5 7 Oeste 21 Oeste 0 -- -- 57
2020-07-01 19:00:00 23.8 9 Oeste 28 Oeste 0 -- -- 49
2020-07-01 18:00:00 25.7 11 Oeste 23 Oeste 0 -- -- 44
2020-07-01 17:00:00 25.2 7 Oeste 32 Oeste 0 -- -- 46
2020-07-01 16:00:00 26.6 7 Oeste 25 Oeste 0 -- -- 38
2020-07-01 15:00:00 25.7 7 Oeste 23 Noroeste 0 -- -- 42
2020-07-01 14:00:00 24.8 8 Oeste 20 Noroeste 0 -- -- 43
2020-07-01 13:00:00 26.3 6 Oeste 18 Oeste 0 -- -- 40
2020-07-01 12:00:00 24.4 6 Oeste 15 Oeste 0 -- -- 46
2020-07-01 11:00:00 22.1 3 Sur 12 Norte 0 -- -- 65
2020-07-01 10:00:00 19.3 6 Norte 12 Norte 0 -- -- 84
2020-07-01 09:00:00 14.3 2 Norte 6 Noroeste 0 -- -- 100
2020-07-01 08:00:00 13.3 2 Norte 11 Nordeste 0 -- -- 100
2020-07-01 07:00:00 12.6 6 Nordeste 12 Nordeste 0 -- -- 100
2020-07-01 06:00:00 12.2 4 Norte 11 Noroeste 0 -- -- 100
2020-07-01 05:00:00 12.4 7 Noroeste 13 Noroeste 0 -- -- 100
2020-07-01 04:00:00 12.4 9 Norte 15 Norte 0 -- -- 100
2020-07-01 03:00:00 12.6 4 Norte 8 Noroeste 0 -- -- 100
2020-07-01 02:00:00 13.2 4 Norte 12 Norte 0 -- -- 98
2020-07-01 01:00:00 14.1 2 Sur 12 Norte 0 -- -- 97
2020-07-01 00:00:00 15 6 Norte 15 Norte 0 -- -- 93
2020-06-30 23:00:00 15.4 4 Norte 13 Norte 0 -- -- 92
2020-06-30 22:00:00 16.1 3 Norte 16 Noroeste 0 -- -- 87
2020-06-30 21:00:00 16.6 6 Noroeste 18 Este 0 -- -- 84
2020-06-30 20:00:00 16.5 9 Noroeste 19 Noroeste 0.8 -- -- 93
2020-06-30 19:00:00 20.9 13 Noroeste 43 Noroeste 0 -- -- 55
2020-06-30 18:00:00 24.9 9 Noroeste 21 Noroeste 0 -- -- 52
2020-06-30 17:00:00 27.6 8 Sudoeste 35 Sur 0 -- -- 47
2020-06-30 16:00:00 28.2 15 Sur 27 Sur 0 -- -- 42
2020-06-30 15:00:00 25.4 14 Sur 30 Sur 0 -- -- 53
2020-06-30 14:00:00 26.5 10 Sur 21 Sur 0 -- -- 49
2020-06-30 13:00:00 26 11 Sur 21 Sur 0 -- -- 50
2020-06-30 12:00:00 23.7 13 Sur 15 Sur 0 -- -- 57
2020-06-30 11:00:00 21.5 4 Sur 6 Sudeste 0 -- -- 59
2020-06-30 10:00:00 20.6 4 Sur 6 Oeste 0 -- -- 61
2020-06-30 09:00:00 18.5 0 Calma 11 Norte 0 -- -- 67
2020-06-30 08:00:00 13.2 5 Norte 12 Norte 0 -- -- 98
2020-06-30 07:00:00 11 7 Norte 12 Norte 0 -- -- 100
2020-06-30 06:00:00 11.2 7 Norte 13 Norte 0 -- -- 98
2020-06-30 05:00:00 11.9 3 Nordeste 18 Norte 0 -- -- 91
2020-06-30 04:00:00 12.8 14 Norte 19 Norte 0 -- -- 92
2020-06-30 03:00:00 13.1 11 Norte 17 Norte 0 -- -- 89
2020-06-30 02:00:00 13.3 7 Norte 14 Norte 0 -- -- 84
2020-06-30 01:00:00 13.7 3 Nordeste 12 Noroeste 0 -- -- 76
2020-06-30 00:00:00 15 5 Norte 18 Noroeste 0 -- -- 70
2020-06-29 23:00:00 16.9 7 Noroeste 17 Noroeste 0 -- -- 65
2020-06-29 22:00:00 18 10 Noroeste 19 Noroeste 0 -- -- 66
2020-06-29 21:00:00 20.4 10 Noroeste 23 Noroeste 0 -- -- 60
2020-06-29 20:00:00 23.2 11 Noroeste 20 Norte 0 -- -- 55
2020-06-29 19:00:00 24.3 11 Noroeste 22 Noroeste 0 -- -- 52
2020-06-29 18:00:00 24.4 10 Noroeste 21 Noroeste 0 -- -- 53
2020-06-29 17:00:00 26.2 5 Oeste 13 Oeste 0 -- -- 48
2020-06-29 16:00:00 26.3 6 Sudoeste 10 Sur 0 -- -- 47
2020-06-29 15:00:00 25.3 4 Sur 10 Sur 0 -- -- 46
2020-06-29 14:00:00 23.4 6 Sudoeste 9 Sur 0 -- -- 49
2020-06-29 13:00:00 22.4 7 Sur 9 Sur 0 -- -- 44
2020-06-29 12:00:00 20.8 5 Sur 8 Sur 0 -- -- 61
2020-06-29 11:00:00 20.2 4 Sur 6 Sur 0 -- -- 71
2020-06-29 10:00:00 18.3 3 Norte 12 Norte 0 -- -- 73
2020-06-29 09:00:00 13.1 7 Norte 13 Noroeste 0 -- -- 100
2020-06-29 08:00:00 12.3 8 Norte 14 Noroeste 0 -- -- 100
2020-06-29 07:00:00 11.4 4 Norte 8 Norte 0 -- -- 100
2020-06-29 06:00:00 11.4 6 Norte 12 Norte 0 -- -- 100
2020-06-29 05:00:00 10.4 4 Este 9 Este 0 -- -- 100
2020-06-29 04:00:00 11.3 4 Norte 8 Nordeste 0 -- -- 100
2020-06-29 03:00:00 11.9 3 Nordeste 9 Norte 0 -- -- 100
2020-06-29 02:00:00 11.7 2 Nordeste 8 Norte 0 -- -- 100
2020-06-29 01:00:00 12.3 3 Este 10 Norte 0 -- -- 100
2020-06-29 00:00:00 13.6 4 Norte 13 Noroeste 0 -- -- 95
2020-06-28 23:00:00 14.6 6 Norte 13 Norte 0 -- -- 92
2020-06-28 22:00:00 16.3 8 Norte 21 Norte 0 -- -- 84
2020-06-28 21:00:00 18.5 13 Nordeste 28 Noroeste 0 -- -- 75
2020-06-28 20:00:00 20.9 11 Noroeste 30 Norte 0 -- -- 64
2020-06-28 19:00:00 21.9 6 Oeste 32 Norte 0 -- -- 60
2020-06-28 18:00:00 23.1 6 Oeste 18 Noroeste 0 -- -- 55
2020-06-28 17:00:00 26.1 7 Oeste 20 Oeste 0 -- -- 45
2020-06-28 16:00:00 26.3 7 Oeste 22 Oeste 0 -- -- 46
2020-06-28 15:00:00 25.7 8 Oeste 19 Oeste 0 -- -- 50
2020-06-28 14:00:00 22.5 5 Sur 11 Sudoeste 0 -- -- 53
2020-06-28 13:00:00 23.5 7 Sur 13 Oeste 0 -- -- 51
2020-06-28 12:00:00 22.4 7 Sudoeste 15 Sudoeste 0 -- -- 56
2020-06-28 11:00:00 22.2 5 Oeste 14 Oeste 0 -- -- 56
2020-06-28 10:00:00 19.9 5 Noroeste 19 Noroeste 0 -- -- 61
2020-06-28 09:00:00 16.7 10 Norte 19 Noroeste 0 -- -- 77
2020-06-28 08:00:00 13.3 5 Norte 14 Norte 0 -- -- 94
2020-06-28 07:00:00 9.7 3 Norte 10 Norte 0 -- -- 100
2020-06-28 06:00:00 9.8 5 Nordeste 10 Este 0 -- -- 100
2020-06-28 05:00:00 9.9 0 Calma 6 Norte 0 -- -- 100
2020-06-28 04:00:00 10.5 2 Norte 9 Nordeste 0 -- -- 100
2020-06-28 03:00:00 10.5 5 Nordeste 10 Norte 0 -- -- 100
2020-06-28 02:00:00 11.1 3 Norte 10 Norte 0 -- -- 100
2020-06-28 01:00:00 11.8 2 Nordeste 6 Nordeste 0 -- -- 96
2020-06-28 00:00:00 12.9 0 Calma 6 Noroeste 0 -- -- 92
2020-06-27 23:00:00 13.9 3 Nordeste 10 Noroeste 0 -- -- 84
2020-06-27 22:00:00 16.5 3 Noroeste 15 Oeste 0 -- -- 72
2020-06-27 21:00:00 18.6 5 Oeste 17 Noroeste 0 -- -- 66
2020-06-27 20:00:00 20.7 7 Sudoeste 24 Sur 0 -- -- 56
2020-06-27 19:00:00 21.8 11 Sudoeste 37 Sur 0 -- -- 59
2020-06-27 18:00:00 21 14 Sudoeste 29 Sudoeste 0 -- -- 61
2020-06-27 17:00:00 21.5 8 Sur 14 Sudeste 0 -- -- 61
2020-06-27 16:00:00 19.9 5 Este 14 Sudoeste 0 -- -- 70
2020-06-27 15:00:00 18 6 Sudoeste 16 Sudoeste 0.2 -- -- 83
2020-06-27 14:00:00 19.2 8 Oeste 26 Sur 0 -- -- 67
2020-06-27 13:00:00 18.6 13 Sur 21 Sur 0 -- -- 72
2020-06-27 12:00:00 21.2 3 Oeste 9 Oeste 0 -- -- 60
2020-06-27 11:00:00 19.2 5 Sur 8 Sur 0 -- -- 64
2020-06-27 10:00:00 16.7 2 Sur 5 Sur 0 -- -- 76
2020-06-27 09:00:00 15.2 0 Calma 5 Nordeste 0 -- -- 84
2020-06-27 08:00:00 12.8 0 Calma 5 Este 0 -- -- 98
2020-06-27 07:00:00 11.2 2 Este 8 Nordeste 0 -- -- 100
2020-06-27 06:00:00 11.8 0 Calma 8 Nordeste 0 -- -- 100
2020-06-27 05:00:00 11.2 5 Este 9 Este 0 -- -- 100
2020-06-27 04:00:00 12.5 2 Sudeste 10 Sur 0 -- -- 97
2020-06-27 03:00:00 12.3 3 Este 8 Este 0 -- -- 94
2020-06-27 02:00:00 13.6 0 Calma 6 Este 0 -- -- 86
2020-06-27 01:00:00 14 4 Nordeste 14 Sudoeste 0 -- -- 84
2020-06-27 00:00:00 14 4 Este 7 Este 0 -- -- 86
2020-06-26 23:00:00 14.7 3 Nordeste 16 Noroeste 0 -- -- 80
2020-06-26 22:00:00 16.5 3 Noroeste 16 Noroeste 0 -- -- 72
2020-06-26 21:00:00 18.1 4 Oeste 19 Noroeste 0 -- -- 66
2020-06-26 20:00:00 20.5 9 Noroeste 21 Noroeste 0 -- -- 54
2020-06-26 19:00:00 20.7 11 Sudoeste 27 Oeste 0 -- -- 55
2020-06-26 18:00:00 22.2 8 Sudoeste 26 Oeste 0 -- -- 49
2020-06-26 17:00:00 21.8 18 Sudoeste 36 Sudoeste 0 -- -- 49
2020-06-26 16:00:00 23.3 18 Sur 37 Sur 0 -- -- 40
2020-06-26 15:00:00 23.1 20 Sur 35 Sur 0 -- -- 29
2020-06-26 14:00:00 22.1 22 Sudoeste 35 Sur 0 -- -- 31
2020-06-26 13:00:00 22.2 15 Sur 22 Sur 0 -- -- 54
2020-06-26 12:00:00 20.6 13 Sur 19 Sur 0 -- -- 63
2020-06-26 11:00:00 19.5 11 Sur 19 Sur 0 -- -- 71
2020-06-26 10:00:00 20.3 4 Este 8 Este 0 -- -- 73
2020-06-26 09:00:00 16.3 3 Este 9 Noroeste 0 -- -- 92
2020-06-26 08:00:00 13.7 4 Norte 7 Noroeste 0 -- -- 100
2020-06-26 07:00:00 13 4 Norte 9 Noroeste 0 -- -- 100
2020-06-26 06:00:00 12.9 2 Nordeste 6 Nordeste 0 -- -- 100
2020-06-26 05:00:00 12.7 4 Nordeste 8 Nordeste 0 -- -- 100
2020-06-26 04:00:00 12.6 7 Norte 13 Noroeste 0 -- -- 100
2020-06-26 03:00:00 12.5 7 Norte 12 Norte 0 -- -- 100
2020-06-26 02:00:00 12.7 4 Norte 8 Norte 0 -- -- 100
2020-06-26 01:00:00 13.8 3 Nordeste 8 Noroeste 0 -- -- 97
2020-06-26 00:00:00 14.5 4 Nordeste 13 Norte 0 -- -- 92
2020-06-25 23:00:00 16.5 4 Norte 12 Noroeste 0 -- -- 82
2020-06-25 22:00:00 17.4 9 Norte 16 Noroeste 0 -- -- 74
2020-06-25 21:00:00 19.4 4 Noroeste 17 Nordeste 0 -- -- 67
2020-06-25 20:00:00 21.1 14 Nordeste 20 Nordeste 0 -- -- 63
2020-06-25 19:00:00 19.8 12 Nordeste 28 Noroeste 0 -- -- 71
2020-06-25 18:00:00 20.4 6 Norte 20 Norte 0 -- -- 77
2020-06-25 17:00:00 20 6 Sudeste 26 Este 1 -- -- 87
2020-06-25 16:00:00 22.8 14 Sudeste 31 Sudeste 0 -- -- 57
2020-06-25 15:00:00 23.1 14 Sur 30 Sur 0 -- -- 59
2020-06-25 14:00:00 23.9 19 Sur 31 Sur 0 -- -- 59
2020-06-25 13:00:00 22.9 19 Sur 30 Sur 0 -- -- 60
2020-06-25 12:00:00 23.3 10 Sur 22 Sur 0 -- -- 58
2020-06-25 11:00:00 20.9 3 Sur 5 Sur 0 -- -- 69
2020-06-25 10:00:00 19.4 4 Norte 9 Norte 0 -- -- 75
2020-06-25 09:00:00 16.4 3 Nordeste 12 Norte 0 -- -- 91
2020-06-25 08:00:00 11.7 5 Norte 12 Noroeste 0 -- -- 100
2020-06-25 07:00:00 11.2 5 Nordeste 8 Norte 0 -- -- 100
2020-06-25 06:00:00 10.9 4 Norte 8 Noroeste 0 -- -- 100
2020-06-25 05:00:00 11.2 5 Norte 11 Norte 0 -- -- 100
2020-06-25 04:00:00 11.5 3 Noroeste 8 Norte 0 -- -- 100
2020-06-25 03:00:00 11.3 5 Nordeste 12 Norte 0 -- -- 100
2020-06-25 02:00:00 12.2 6 Norte 10 Norte 0 -- -- 100
2020-06-25 01:00:00 12.4 5 Noroeste 12 Noroeste 0 -- -- 100
2020-06-25 00:00:00 13.1 0 Calma 23 Noroeste 0 -- -- 100
2020-06-24 23:00:00 12.9 9 Norte 15 Norte 1.6 -- -- 100
2020-06-24 22:00:00 13.4 3 Norte 30 Noroeste 4.2 -- -- 100
2020-06-24 21:00:00 13.9 8 Noroeste 27 Sur 5.2 -- -- 100
2020-06-24 20:00:00 15.7 17 Sudoeste 28 Norte 4 -- -- 92
2020-06-24 19:00:00 16.6 5 Norte 22 Norte 1.2 -- -- 90
2020-06-24 18:00:00 20 4 Sudoeste 29 Noroeste 0.2 -- -- 69
2020-06-24 17:00:00 25.6 11 Sudeste 43 Sur 0 -- -- 40
2020-06-24 16:00:00 28.5 18 Sudeste 42 Sur 0 -- -- 35
2020-06-24 15:00:00 29.2 17 Sudeste 39 Sur 0 -- -- 37
2020-06-24 14:00:00 28.7 15 Sudeste 30 Sur 0 -- -- 38
2020-06-24 13:00:00 27.6 13 Sur 19 Sur 0 -- -- 43
2020-06-24 12:00:00 27.6 5 Sudeste 13 Sur 0 -- -- 40
2020-06-24 11:00:00 23.9 3 Sudoeste 9 Sudoeste 0 -- -- 52
2020-06-24 10:00:00 22.7 4 Norte 12 Norte 0 -- -- 53
2020-06-24 09:00:00 18.9 7 Norte 11 Norte 0 -- -- 64
2020-06-24 08:00:00 15 6 Norte 13 Norte 0 -- -- 79
2020-06-24 07:00:00 12.1 5 Nordeste 13 Norte 0 -- -- 89
2020-06-24 06:00:00 12.6 5 Norte 13 Norte 0 -- -- 86
2020-06-24 05:00:00 13.4 7 Norte 12 Norte 0 -- -- 85
2020-06-24 04:00:00 14.3 7 Norte 14 Norte 0 -- -- 79
2020-06-24 03:00:00 16 6 Norte 17 Norte 0 -- -- 71
2020-06-24 02:00:00 16.4 10 Norte 18 Norte 0 -- -- 73
2020-06-24 01:00:00 17.1 5 Norte 14 Norte 0 -- -- 68
2020-06-24 00:00:00 16.8 6 Norte 13 Norte 0 -- -- 70
2020-06-23 23:00:00 18.7 7 Nordeste 13 Noroeste 0 -- -- 63
2020-06-23 22:00:00 21.7 3 Nordeste 15 Noroeste 0 -- -- 53
2020-06-23 21:00:00 24.4 6 Noroeste 21 Noroeste 0 -- -- 48
2020-06-23 20:00:00 28.1 9 Noroeste 18 Noroeste 0 -- -- 37
2020-06-23 19:00:00 28 9 Noroeste 18 Norte 0 -- -- 38
2020-06-23 18:00:00 30 5 Noroeste 17 Norte 0 -- -- 32
2020-06-23 17:00:00 30.7 5 Oeste 19 Sudoeste 0 -- -- 30
2020-06-23 16:00:00 30.6 14 Sudoeste 43 Sudoeste 0 -- -- 32
2020-06-23 15:00:00 29.8 13 Sudoeste 32 Sudoeste 0 -- -- 31
2020-06-23 14:00:00 29.7 5 Norte 10 Oeste 0 -- -- 31
2020-06-23 13:00:00 27.4 6 Sur 8 Sur 0 -- -- 32
2020-06-23 12:00:00 26.3 0 Calma 6 Sur 0 -- -- 37
2020-06-23 11:00:00 22.2 4 Sudoeste 6 Sur 0 -- -- 53
2020-06-23 10:00:00 19.5 4 Sur 9 Norte 0 -- -- 61
2020-06-23 09:00:00 18.1 3 Nordeste 13 Norte 0 -- -- 64
2020-06-23 08:00:00 13.5 9 Norte 13 Norte 0 -- -- 86
2020-06-23 07:00:00 10.1 5 Nordeste 14 Norte 0 -- -- 99
2020-06-23 06:00:00 10.5 4 Noroeste 11 Norte 0 -- -- 98
2020-06-23 05:00:00 11.4 7 Norte 13 Norte 0 -- -- 90
2020-06-23 04:00:00 12.3 8 Norte 13 Norte 0 -- -- 87
2020-06-23 03:00:00 12.5 7 Norte 12 Norte 0 -- -- 85
2020-06-23 02:00:00 13.2 0 Calma 12 Norte 0 -- -- 78
2020-06-23 01:00:00 14.9 6 Norte 12 Norte 0 -- -- 70
2020-06-23 00:00:00 15.8 2 Sudoeste 8 Norte 0 -- -- 60
2020-06-22 23:00:00 17.1 3 Este 6 Este 0 -- -- 54
2020-06-22 22:00:00 20.4 3 Este 12 Sur 0 -- -- 43
2020-06-22 21:00:00 23 5 Sur 22 Sur 0 -- -- 41
2020-06-22 20:00:00 25 18 Sur 25 Sur 0 -- -- 37
2020-06-22 19:00:00 26.1 15 Sur 29 Sur 0 -- -- 33
2020-06-22 18:00:00 26.7 18 Sudoeste 27 Sur 0 -- -- 35
2020-06-22 17:00:00 27.4 16 Sudoeste 27 Sur 0 -- -- 35
2020-06-22 16:00:00 27 15 Sudoeste 23 Sudoeste 0 -- -- 36
2020-06-22 15:00:00 26 17 Sudoeste 23 Sudoeste 0 -- -- 39
2020-06-22 14:00:00 25.3 16 Sur 21 Sur 0 -- -- 43
2020-06-22 13:00:00 23.6 14 Sur 21 Sur 0 -- -- 43
2020-06-22 12:00:00 23.2 13 Sur 15 Sur 0 -- -- 52
2020-06-22 11:00:00 20.6 2 Sudeste 6 Sudoeste 0 -- -- 48
2020-06-22 10:00:00 17.9 3 Sur 14 Norte 0 -- -- 57
2020-06-22 09:00:00 14.1 10 Norte 19 Norte 0 -- -- 69
2020-06-22 08:00:00 10.4 10 Norte 14 Norte 0 -- -- 89
2020-06-22 07:00:00 6.7 7 Norte 13 Norte 0 -- -- 100
2020-06-22 06:00:00 7.1 7 Norte 12 Norte 0 -- -- 100
2020-06-22 05:00:00 7.6 4 Norte 12 Norte 0 -- -- 99
2020-06-22 04:00:00 8.4 6 Nordeste 11 Nordeste 0 -- -- 96
2020-06-22 03:00:00 9.2 4 Nordeste 19 Norte 0 -- -- 95
2020-06-22 02:00:00 10.7 5 Nordeste 18 Norte 0 -- -- 92
2020-06-22 01:00:00 10.5 4 Nordeste 12 Norte 0 -- -- 95
2020-06-22 00:00:00 12.2 7 Noroeste 18 Norte 0 -- -- 92
2020-06-21 23:00:00 14 12 Norte 24 Norte 0 -- -- 83
2020-06-21 22:00:00 15.3 12 Norte 26 Noroeste 0 -- -- 83
2020-06-21 21:00:00 16.9 13 Noroeste 27 Norte 0 -- -- 77
2020-06-21 20:00:00 19.2 14 Norte 30 Norte 0 -- -- 68
2020-06-21 19:00:00 20.9 17 Norte 32 Noroeste 0 -- -- 62
2020-06-21 18:00:00 22.8 16 Noroeste 35 Norte 0 -- -- 57
2020-06-21 17:00:00 22.9 13 Norte 28 Norte 0 -- -- 55
2020-06-21 16:00:00 26.5 8 Oeste 24 Norte 0 -- -- 44
2020-06-21 15:00:00 26.9 6 Sudoeste 11 Oeste 0 -- -- 38
2020-06-21 14:00:00 24.1 8 Sur 19 Noroeste 0 -- -- 43
2020-06-21 13:00:00 24.1 6 Noroeste 14 Norte 0 -- -- 43
2020-06-21 12:00:00 21.4 6 Sur 9 Sur 0 -- -- 44
2020-06-21 11:00:00 20 4 Sudoeste 12 Noroeste 0 -- -- 48
2020-06-21 10:00:00 19.1 4 Norte 13 Norte 0 -- -- 55
2020-06-21 09:00:00 15.3 6 Norte 13 Norte 0 -- -- 65
2020-06-21 08:00:00 10.5 4 Nordeste 10 Nordeste 0 -- -- 86
2020-06-21 07:00:00 8.1 3 Norte 12 Norte 0 -- -- 96
2020-06-21 06:00:00 8.4 3 Norte 8 Noroeste 0 -- -- 94
2020-06-21 05:00:00 8.5 2 Nordeste 6 Nordeste 0 -- -- 97
2020-06-21 04:00:00 9.4 2 Nordeste 12 Nordeste 0 -- -- 92
2020-06-21 03:00:00 10 6 Nordeste 11 Norte 0 -- -- 91
2020-06-21 02:00:00 10.3 2 Nordeste 9 Este 0 -- -- 80
2020-06-21 01:00:00 11.4 3 Norte 7 Norte 0 -- -- 74
2020-06-21 00:00:00 13.2 2 Norte 9 Este 0 -- -- 65
2020-06-20 23:00:00 13.7 6 Este 10 Este 0 -- -- 68
2020-06-20 22:00:00 17.3 6 Noroeste 14 Norte 0 -- -- 57
2020-06-20 21:00:00 20.9 9 Oeste 22 Oeste 0 -- -- 40
2020-06-20 20:00:00 23.3 10 Sudoeste 21 Sudoeste 0 -- -- 40
2020-06-20 19:00:00 23.9 12 Sudoeste 30 Oeste 0 -- -- 39
2020-06-20 18:00:00 24.6 13 Sudoeste 36 Sur 0 -- -- 39
2020-06-20 17:00:00 24.1 20 Sudoeste 43 Sur 0 -- -- 38
2020-06-20 16:00:00 23.6 26 Sur 40 Sudoeste 0 -- -- 29
2020-06-20 15:00:00 23.5 19 Sur 28 Sur 0 -- -- 33
2020-06-20 14:00:00 22.9 15 Sur 26 Sur 0 -- -- 37
2020-06-20 13:00:00 21.5 16 Sur 24 Sur 0 -- -- 49
2020-06-20 12:00:00 19.9 13 Sur 23 Sur 0 -- -- 50
2020-06-20 11:00:00 18.8 4 Sur 7 Sudoeste 0 -- -- 52
2020-06-20 10:00:00 15.5 2 Sur 8 Norte 0 -- -- 68
2020-06-20 09:00:00 13.1 6 Norte 9 Norte 0 -- -- 80
2020-06-20 08:00:00 9 7 Norte 10 Norte 0 -- -- 100
2020-06-20 07:00:00 6.3 6 Norte 12 Norte 0 -- -- 100
2020-06-20 06:00:00 6.4 5 Norte 10 Norte 0 -- -- 100
2020-06-20 05:00:00 7 5 Norte 10 Norte 0 -- -- 100
2020-06-20 04:00:00 7.6 4 Nordeste 11 Norte 0 -- -- 100
2020-06-20 03:00:00 8.4 5 Norte 11 Noroeste 0 -- -- 100
2020-06-20 02:00:00 9 3 Norte 6 Norte 0 -- -- 100
2020-06-20 01:00:00 10.2 3 Norte 7 Nordeste 0 -- -- 99
2020-06-20 00:00:00 10.8 4 Norte 10 Norte 0 -- -- 93
2020-06-19 23:00:00 12 5 Noroeste 13 Norte 0 -- -- 87
2020-06-19 22:00:00 14.2 9 Norte 17 Norte 0 -- -- 78
2020-06-19 21:00:00 16.6 8 Norte 18 Noroeste 0 -- -- 67
2020-06-19 20:00:00 19 5 Noroeste 22 Noroeste 0 -- -- 58
2020-06-19 19:00:00 20.7 7 Noroeste 21 Norte 0 -- -- 51
2020-06-19 18:00:00 21.1 8 Noroeste 21 Norte 0 -- -- 47
2020-06-19 17:00:00 22 6 Norte 19 Sur 0 -- -- 36
2020-06-19 16:00:00 21.8 13 Sur 22 Sur 0 -- -- 36
2020-06-19 15:00:00 21.3 13 Sur 23 Sur 0 -- -- 43
2020-06-19 14:00:00 19.6 12 Sur 22 Sur 0 -- -- 52
2020-06-19 13:00:00 19 10 Sur 17 Sur 0 -- -- 49
2020-06-19 12:00:00 17 9 Sur 14 Sur 0 -- -- 54
2020-06-19 11:00:00 14.7 5 Sudoeste 8 Sudoeste 0 -- -- 70
2020-06-19 10:00:00 9 3 Noroeste 9 Noroeste 0 -- -- 100
2020-06-19 09:00:00 6.8 3 Norte 8 Noroeste 0 -- -- 100
2020-06-19 08:00:00 5.8 4 Noroeste 11 Norte 0 -- -- 100
2020-06-19 07:00:00 4.6 6 Norte 10 Norte 0 -- -- 100
2020-06-19 06:00:00 4.8 5 Norte 11 Norte 0 -- -- 100
2020-06-19 05:00:00 4.7 4 Este 8 Nordeste 0 -- -- 100
2020-06-19 04:00:00 5.8 0 Calma 9 Norte 0 -- -- 100
2020-06-19 03:00:00 5.7 5 Nordeste 10 Norte 0 -- -- 100
2020-06-19 02:00:00 6.4 4 Nordeste 8 Norte 0 -- -- 100
2020-06-19 01:00:00 6.5 2 Nordeste 6 Nordeste 0 -- -- 100
2020-06-19 00:00:00 7 3 Nordeste 12 Noroeste 0 -- -- 100
2020-06-18 23:00:00 8.7 4 Norte 14 Noroeste 0 -- -- 94
2020-06-18 22:00:00 10.5 10 Norte 21 Norte 0 -- -- 87
2020-06-18 21:00:00 11.9 17 Norte 26 Norte 0 -- -- 80
2020-06-18 20:00:00 14.8 16 Norte 26 Norte 0 -- -- 67
2020-06-18 19:00:00 15.7 10 Norte 24 Noroeste 0 -- -- 63
2020-06-18 18:00:00 18.7 6 Noroeste 19 Noroeste 0 -- -- 53
2020-06-18 17:00:00 17.6 11 Norte 17 Noroeste 0 -- -- 53
2020-06-18 16:00:00 19 6 Noroeste 16 Norte 0 -- -- 50
2020-06-18 15:00:00 18.3 4 Oeste 15 Noroeste 0 -- -- 50
2020-06-18 14:00:00 17.6 9 Sur 15 Sur 0 -- -- 49
2020-06-18 13:00:00 16.9 8 Sur 13 Sudoeste 0 -- -- 51
2020-06-18 12:00:00 15.6 6 Sur 12 Sudoeste 0 -- -- 53
2020-06-18 11:00:00 15.3 5 Sudoeste 12 Oeste 0 -- -- 57
2020-06-18 10:00:00 13.6 4 Sur 12 Este 0 -- -- 62
2020-06-18 09:00:00 13.2 5 Norte 10 Norte 0 -- -- 66
2020-06-18 08:00:00 7.8 4 Norte 13 Norte 0 -- -- 96
2020-06-18 07:00:00 5.4 5 Norte 10 Nordeste 0 -- -- 100
2020-06-18 06:00:00 6.4 0 Calma 12 Noroeste 0 -- -- 100
2020-06-18 05:00:00 6.8 6 Noroeste 14 Norte 0 -- -- 100
2020-06-18 04:00:00 5.4 4 Nordeste 7 Nordeste 0 -- -- 100
2020-06-18 03:00:00 5.1 2 Nordeste 11 Norte 0 -- -- 100
2020-06-18 02:00:00 6.4 2 Norte 15 Norte 0 -- -- 99
2020-06-18 01:00:00 7.7 3 Este 12 Nordeste 0 -- -- 92
2020-06-18 00:00:00 9.1 8 Norte 14 Nordeste 0 -- -- 88
2020-06-17 23:00:00 8.8 8 Norte 16 Nordeste 0 -- -- 88
2020-06-17 22:00:00 10.1 13 Nordeste 18 Nordeste 0 -- -- 81
2020-06-17 21:00:00 11.7 6 Noroeste 18 Noroeste 0 -- -- 77
2020-06-17 20:00:00 12.7 9 Norte 17 Norte 0 -- -- 69
2020-06-17 19:00:00 15.8 5 Noroeste 14 Norte 0 -- -- 57
2020-06-17 18:00:00 15.9 5 Noroeste 15 Noroeste 0 -- -- 57
2020-06-17 17:00:00 14.8 4 Oeste 12 Noroeste 0 -- -- 57
2020-06-17 16:00:00 15.2 3 Sudoeste 10 Oeste 0 -- -- 53
2020-06-17 15:00:00 16.3 3 Nordeste 8 Este 0 -- -- 52
2020-06-17 14:00:00 14 3 Sudeste 16 Sur 0 -- -- 56
2020-06-17 13:00:00 14.5 7 Sudeste 19 Sur 0 -- -- 58
2020-06-17 12:00:00 12.5 15 Sur 21 Sur 0 -- -- 66
2020-06-17 11:00:00 13.3 7 Oeste 14 Oeste 0 -- -- 61
2020-06-17 10:00:00 12.1 4 Oeste 10 Oeste 0 -- -- 68
2020-06-17 09:00:00 9.2 3 Nordeste 6 Norte 0 -- -- 81
2020-06-17 08:00:00 7 0 Calma 8 Este 0 -- -- 96
2020-06-17 07:00:00 5.1 5 Norte 9 Norte 0 -- -- 100
2020-06-17 06:00:00 5.7 4 Nordeste 10 Noroeste 0 -- -- 98
2020-06-17 05:00:00 7.5 0 Calma 8 Este 0 -- -- 92
2020-06-17 04:00:00 6.8 2 Nordeste 19 Noroeste 0 -- -- 92
2020-06-17 03:00:00 8.6 4 Oeste 17 Oeste 0 -- -- 89
2020-06-17 02:00:00 8.3 0 Calma 8 Noroeste 0 -- -- 91
2020-06-17 01:00:00 8.6 3 Noroeste 22 Noroeste 0 -- -- 87
2020-06-17 00:00:00 9.8 7 Oeste 17 Oeste 0 -- -- 78
2020-06-16 23:00:00 10.5 5 Oeste 23 Oeste 0 -- -- 72
2020-06-16 22:00:00 11.2 8 Oeste 23 Oeste 0 -- -- 68
2020-06-16 21:00:00 12.3 6 Oeste 25 Oeste 0 -- -- 65
2020-06-16 20:00:00 13.1 9 Oeste 24 Oeste 0 -- -- 63
2020-06-16 19:00:00 16.9 9 Oeste 28 Noroeste 0 -- -- 53
2020-06-16 18:00:00 17.2 10 Oeste 36 Oeste 0 -- -- 53
2020-06-16 17:00:00 17.4 12 Oeste 33 Noroeste 0 -- -- 49
2020-06-16 16:00:00 16.4 9 Oeste 30 Noroeste 0 -- -- 49
2020-06-16 15:00:00 17.6 8 Oeste 30 Sur 0.2 -- -- 62
2020-06-16 14:00:00 13.6 14 Sur 24 Sudoeste 0.8 -- -- 83
2020-06-16 13:00:00 13.4 5 Sudeste 18 Este 0 -- -- 82
2020-06-16 12:00:00 14.4 4 Este 14 Sur 0.2 -- -- 76
2020-06-16 11:00:00 11.2 10 Sur 15 Sur 0.2 -- -- 89
2020-06-16 10:00:00 9.8 13 Sur 17 Sur 0 -- -- 95
2020-06-16 09:00:00 10.6 3 Sudeste 11 Sur 0 -- -- 83
2020-06-16 08:00:00 8.5 7 Sur 13 Sur 0 -- -- 89
2020-06-16 07:00:00 7.6 0 Calma 5 Oeste 0 -- -- 96
2020-06-16 06:00:00 7.4 3 Este 8 Este 0 -- -- 90
2020-06-16 05:00:00 8.7 3 Norte 10 Norte 0 -- -- 84
2020-06-16 04:00:00 7.9 0 Calma 8 Este 0 -- -- 81
2020-06-16 03:00:00 9.3 3 Este 6 Nordeste 0 -- -- 79
2020-06-16 02:00:00 9.8 0 Calma 15 Noroeste 0 -- -- 73
2020-06-16 01:00:00 10 6 Noroeste 17 Noroeste 0 -- -- 74
2020-06-16 00:00:00 10.4 3 Oeste 18 Noroeste 0 -- -- 77
2020-06-15 23:00:00 11.1 10 Noroeste 23 Noroeste 0 -- -- 74
2020-06-15 22:00:00 12.4 5 Noroeste 19 Noroeste 0 -- -- 69
2020-06-15 21:00:00 13.5 10 Noroeste 24 Noroeste 0 -- -- 62
2020-06-15 20:00:00 14.6 13 Norte 28 Noroeste 0 -- -- 57
2020-06-15 19:00:00 16.2 12 Noroeste 27 Noroeste 0 -- -- 48
2020-06-15 18:00:00 17.4 8 Noroeste 26 Oeste 0 -- -- 50
2020-06-15 17:00:00 17.1 8 Oeste 22 Noroeste 0 -- -- 56
2020-06-15 16:00:00 17.4 6 Oeste 21 Oeste 0 -- -- 51
2020-06-15 15:00:00 19 6 Oeste 14 Sudoeste 0 -- -- 50
2020-06-15 14:00:00 16.2 6 Sudoeste 14 Oeste 0 -- -- 57
2020-06-15 13:00:00 16.8 8 Oeste 17 Sudoeste 0 -- -- 54
2020-06-15 12:00:00 18.6 5 Oeste 19 Norte 0 -- -- 52
2020-06-15 11:00:00 13.8 8 Norte 20 Norte 0 -- -- 63
2020-06-15 10:00:00 13.9 5 Noroeste 12 Noroeste 0 -- -- 62
2020-06-15 09:00:00 12.9 3 Este 8 Este 0 -- -- 67
2020-06-15 08:00:00 7.9 4 Nordeste 8 Nordeste 0 -- -- 91
2020-06-15 07:00:00 5.2 2 Nordeste 5 Norte 0 -- -- 96
2020-06-15 06:00:00 6.4 0 Calma 5 Norte 0 -- -- 91
2020-06-15 05:00:00 5.4 3 Nordeste 11 Norte 0 -- -- 96
2020-06-15 04:00:00 5.6 4 Nordeste 6 Nordeste 0 -- -- 97
2020-06-15 03:00:00 5.7 3 Este 8 Noroeste 0 -- -- 90
2020-06-15 02:00:00 7.7 4 Noroeste 18 Noroeste 0 -- -- 82
2020-06-15 01:00:00 8.8 6 Noroeste 18 Noroeste 0 -- -- 86
2020-06-15 00:00:00 10 6 Noroeste 15 Noroeste 0 -- -- 78
2020-06-14 23:00:00 10.5 7 Noroeste 14 Noroeste 0 -- -- 78
2020-06-14 22:00:00 11.5 7 Noroeste 21 Noroeste 0 -- -- 72
2020-06-14 21:00:00 12.1 7 Oeste 20 Oeste 0 -- -- 70
2020-06-14 20:00:00 13.3 7 Oeste 17 Oeste 0 -- -- 67
2020-06-14 19:00:00 15.5 4 Oeste 11 Oeste 0 -- -- 59
2020-06-14 18:00:00 14.1 4 Oeste 15 Noroeste 0 -- -- 65
2020-06-14 17:00:00 13.8 7 Sudoeste 22 Oeste 0 -- -- 64
2020-06-14 16:00:00 14.7 10 Sudoeste 19 Oeste 0 -- -- 63
2020-06-14 15:00:00 13.7 8 Sur 14 Sur 0 -- -- 64
2020-06-14 14:00:00 12.8 5 Sudeste 15 Sudoeste 0 -- -- 64
2020-06-14 13:00:00 14.6 3 Oeste 16 Sur 0 -- -- 56
2020-06-14 12:00:00 14.1 6 Sur 15 Sur 0 -- -- 59
2020-06-14 11:00:00 11.7 3 Noroeste 13 Sur 0 -- -- 69
2020-06-14 10:00:00 11.4 4 Oeste 8 Sudoeste 0 -- -- 67
2020-06-14 09:00:00 11.8 2 Este 8 Norte 0 -- -- 67
2020-06-14 08:00:00 7.2 4 Norte 6 Nordeste 0 -- -- 90
2020-06-14 07:00:00 6.4 0 Calma 5 Noroeste 0 -- -- 88
2020-06-14 06:00:00 5.8 2 Este 6 Nordeste 0 -- -- 91
2020-06-14 05:00:00 6.5 0 Calma 8 Nordeste 0 -- -- 89
2020-06-14 04:00:00 5.9 4 Nordeste 9 Oeste 0 -- -- 97
2020-06-14 03:00:00 5 3 Nordeste 8 Este 0 -- -- 100
2020-06-14 02:00:00 5.1 4 Nordeste 9 Este 0 -- -- 99
2020-06-14 01:00:00 6.4 4 Nordeste 11 Este 0 -- -- 98
2020-06-14 00:00:00 7.9 0 Calma 15 Sur 0 -- -- 86
2020-06-13 23:00:00 8.2 5 Nordeste 18 Sudoeste 0 -- -- 84
2020-06-13 22:00:00 10.3 12 Sudoeste 18 Sudoeste 0 -- -- 74
2020-06-13 21:00:00 11.4 9 Sudoeste 21 Sudoeste 0 -- -- 70
2020-06-13 20:00:00 12.6 12 Sudoeste 30 Oeste 0 -- -- 70
2020-06-13 19:00:00 12.8 18 Oeste 38 Oeste 0 -- -- 65
2020-06-13 18:00:00 14.9 11 Sudoeste 36 Sudoeste 0 -- -- 60
2020-06-13 17:00:00 14.7 16 Sudoeste 31 Sudoeste 0 -- -- 64
2020-06-13 16:00:00 15.3 14 Sudoeste 43 Sudoeste 0 -- -- 63
2020-06-13 15:00:00 13.4 14 Oeste 31 Sudoeste 0 -- -- 66
2020-06-13 14:00:00 13.7 17 Oeste 33 Sur 0 -- -- 67
2020-06-13 13:00:00 14.5 5 Sudoeste 32 Sudoeste 0 -- -- 64
2020-06-13 12:00:00 13.3 13 Sudoeste 24 Sudoeste 0 -- -- 68
2020-06-13 11:00:00 11.1 13 Sur 24 Sur 0 -- -- 78
2020-06-13 10:00:00 9.3 13 Sur 22 Sur 0 -- -- 87
2020-06-13 09:00:00 8.5 14 Sur 24 Sur 0 -- -- 89
2020-06-13 08:00:00 7.7 7 Sudeste 14 Sudeste 0 -- -- 89
2020-06-13 07:00:00 7.4 3 Oeste 17 Oeste 0 -- -- 89
2020-06-13 06:00:00 7.1 0 Calma 14 Noroeste 0 -- -- 93
2020-06-13 05:00:00 7.1 0 Calma 15 Este 0 -- -- 95
2020-06-13 04:00:00 7.3 10 Sudeste 19 Sur 0 -- -- 93
2020-06-13 03:00:00 7.1 3 Este 13 Oeste 0.2 -- -- 99
2020-06-13 02:00:00 7.5 8 Noroeste 21 Noroeste 0 -- -- 92
2020-06-13 01:00:00 6.9 3 Nordeste 5 Norte 0 -- -- 99
2020-06-13 00:00:00 7.4 3 Oeste 17 Oeste 0 -- -- 93
2020-06-12 23:00:00 8.4 4 Oeste 15 Noroeste 0 -- -- 84
2020-06-12 22:00:00 9 9 Noroeste 22 Noroeste 0 -- -- 76
2020-06-12 21:00:00 10.3 8 Oeste 22 Noroeste 0 -- -- 70
2020-06-12 20:00:00 11.6 6 Oeste 37 Noroeste 0 -- -- 66
2020-06-12 19:00:00 13.6 7 Noroeste 26 Noroeste 0 -- -- 60
2020-06-12 18:00:00 12.2 12 Noroeste 32 Oeste 0 -- -- 65
2020-06-12 17:00:00 12.2 7 Noroeste 27 Oeste 0 -- -- 68
2020-06-12 16:00:00 11.8 10 Oeste 27 Oeste 0.2 -- -- 71
2020-06-12 15:00:00 10.8 8 Oeste 27 Noroeste 0.8 -- -- 78
2020-06-12 14:00:00 8.7 3 Oeste 24 Sur 1.4 -- -- 91
2020-06-12 13:00:00 7.6 14 Sur 25 Sur 0.6 -- -- 93
2020-06-12 12:00:00 7.6 12 Sudeste 30 Sur 0.2 -- -- 89
2020-06-12 11:00:00 7.9 16 Sudoeste 26 Sudoeste 0 -- -- 84
2020-06-12 10:00:00 8.4 3 Sudoeste 10 Oeste 0 -- -- 82
2020-06-12 09:00:00 7.3 3 Oeste 16 Oeste 0 -- -- 83
2020-06-12 08:00:00 8.9 6 Noroeste 18 Noroeste 0 -- -- 73
2020-06-12 07:00:00 5.1 5 Noroeste 21 Noroeste 0 -- -- 83
2020-06-12 06:00:00 5.4 8 Noroeste 26 Noroeste 0 -- -- 91
2020-06-12 05:00:00 6.1 5 Oeste 19 Oeste 0 -- -- 85
2020-06-12 04:00:00 6.4 4 Noroeste 31 Sur 0 -- -- 92
2020-06-12 03:00:00 5.7 6 Sudeste 27 Sur 1.2 -- -- 100
2020-06-12 02:00:00 5.5 12 Sudeste 30 Sur 0.6 -- -- 97
2020-06-12 01:00:00 5.6 18 Sur 33 Sur 0.2 -- -- 95
2020-06-12 00:00:00 5.8 15 Sur 34 Sur 0.2 -- -- 96
2020-06-11 23:00:00 6.6 17 Sur 26 Sudoeste 0 -- -- 83
2020-06-11 22:00:00 5.9 3 Noroeste 17 Noroeste 0 -- -- 79
2020-06-11 21:00:00 6.4 9 Noroeste 29 Noroeste 0 -- -- 77
2020-06-11 20:00:00 7.1 7 Oeste 27 Noroeste 0.4 -- -- 74
2020-06-11 19:00:00 7.3 16 Noroeste 38 Noroeste 0.2 -- -- 77
2020-06-11 18:00:00 11.2 13 Oeste 36 Oeste 0 -- -- 63
2020-06-11 17:00:00 12.7 5 Oeste 32 Noroeste 0 -- -- 62
2020-06-11 16:00:00 12.4 9 Oeste 40 Noroeste 0 -- -- 55
2020-06-11 15:00:00 15.2 14 Noroeste 31 Noroeste 0 -- -- 52
2020-06-11 14:00:00 14.7 6 Oeste 30 Noroeste 0 -- -- 64
2020-06-11 13:00:00 14.1 10 Oeste 28 Sudoeste 0 -- -- 58
2020-06-11 12:00:00 17 14 Oeste 27 Oeste 0 -- -- 48
2020-06-11 11:00:00 16.7 9 Oeste 31 Noroeste 0 -- -- 56
2020-06-11 10:00:00 13 11 Noroeste 33 Noroeste 0 -- -- 71
2020-06-11 09:00:00 13 5 Noroeste 14 Norte 0 -- -- 72
2020-06-11 08:00:00 12.7 4 Noroeste 16 Noroeste 0 -- -- 73
2020-06-11 07:00:00 9.9 5 Noroeste 27 Noroeste 0 -- -- 85
2020-06-11 06:00:00 9.8 0 Calma 12 Sudoeste 0 -- -- 81
2020-06-11 05:00:00 8.6 4 Este 7 Oeste 0 -- -- 88
2020-06-11 04:00:00 9.6 4 Oeste 24 Noroeste 0 -- -- 80
2020-06-11 03:00:00 10.4 16 Norte 23 Norte 0 -- -- 74
2020-06-11 02:00:00 11.3 11 Noroeste 31 Noroeste 0 -- -- 69
2020-06-11 01:00:00 11.8 12 Noroeste 28 Noroeste 0 -- -- 65
2020-06-11 00:00:00 11.5 3 Oeste 11 Noroeste 0 -- -- 72
2020-06-10 23:00:00 11.9 8 Noroeste 22 Noroeste 0 -- -- 78
2020-06-10 22:00:00 12.1 9 Noroeste 21 Norte 0 -- -- 77
2020-06-10 21:00:00 13.5 12 Noroeste 24 Noroeste 0 -- -- 72
2020-06-10 20:00:00 15.5 10 Norte 22 Noroeste 0 -- -- 66
2020-06-10 19:00:00 18.5 8 Noroeste 20 Noroeste 0 -- -- 57
2020-06-10 18:00:00 17.2 11 Norte 28 Norte 0 -- -- 59
2020-06-10 17:00:00 19.2 11 Noroeste 25 Noroeste 0 -- -- 51
2020-06-10 16:00:00 19.9 6 Sudoeste 13 Sur 0 -- -- 45
2020-06-10 15:00:00 19.4 3 Sur 14 Sur 0 -- -- 47
2020-06-10 14:00:00 18.3 5 Sur 18 Sur 0 -- -- 49
2020-06-10 13:00:00 16.4 12 Sur 19 Sur 0 -- -- 55
2020-06-10 12:00:00 15.2 8 Sur 22 Sur 0 -- -- 57
2020-06-10 11:00:00 14.3 13 Sur 22 Sur 0 -- -- 60
2020-06-10 10:00:00 13.2 13 Sur 20 Sur 0 -- -- 65
2020-06-10 09:00:00 12.5 4 Nordeste 8 Nordeste 0 -- -- 73
2020-06-10 08:00:00 7 0 Calma 3 Este 0 -- -- 100
2020-06-10 07:00:00 4.6 0 Calma 4 Nordeste 0 -- -- 100
2020-06-10 06:00:00 4.7 0 Calma 6 Nordeste 0 -- -- 100
2020-06-10 05:00:00 4.4 2 Este 5 Este 0 -- -- 100
2020-06-10 04:00:00 4.7 3 Este 6 Nordeste 0 -- -- 100
2020-06-10 03:00:00 5.8 3 Este 9 Nordeste 0 -- -- 99
2020-06-10 02:00:00 7.1 4 Nordeste 7 Nordeste 0 -- -- 99
2020-06-10 01:00:00 6.4 4 Norte 10 Norte 0 -- -- 100
2020-06-10 00:00:00 6.5 6 Norte 14 Norte 0 -- -- 99
2020-06-09 23:00:00 7.2 9 Norte 13 Norte 0 -- -- 92
2020-06-09 22:00:00 8.3 9 Norte 24 Norte 0 -- -- 83
2020-06-09 21:00:00 10 12 Norte 24 Norte 0 -- -- 73
2020-06-09 20:00:00 12 13 Norte 24 Norte 0 -- -- 63
2020-06-09 19:00:00 12.5 21 Norte 35 Norte 0 -- -- 60
2020-06-09 18:00:00 14.2 19 Nordeste 35 Este 0 -- -- 54
2020-06-09 17:00:00 13.9 22 Este 47 Este 0 -- -- 54
2020-06-09 16:00:00 15 22 Nordeste 37 Nordeste 0 -- -- 51
2020-06-09 15:00:00 14 16 Nordeste 32 Nordeste 0 -- -- 53
2020-06-09 14:00:00 13.6 11 Nordeste 36 Nordeste 0 -- -- 53
2020-06-09 13:00:00 13 10 Norte 31 Norte 0 -- -- 51
2020-06-09 12:00:00 13.1 21 Nordeste 42 Este 0 -- -- 52
2020-06-09 11:00:00 13.2 17 Nordeste 30 Nordeste 0 -- -- 51
2020-06-09 10:00:00 12.6 14 Nordeste 24 Norte 0 -- -- 51
2020-06-09 09:00:00 12.6 4 Oeste 15 Noroeste 0 -- -- 53
2020-06-09 08:00:00 7.1 8 Norte 17 Norte 0 -- -- 71
2020-06-09 07:00:00 5.5 12 Norte 20 Norte 0 -- -- 71
2020-06-09 06:00:00 5.8 10 Norte 22 Norte 0 -- -- 74
2020-06-09 05:00:00 6.1 9 Norte 19 Norte 0 -- -- 71
2020-06-09 04:00:00 6.7 9 Nordeste 18 Norte 0 -- -- 71
2020-06-09 03:00:00 6.5 12 Norte 22 Nordeste 0 -- -- 73
2020-06-09 02:00:00 6.4 14 Nordeste 23 Norte 0 -- -- 76
2020-06-09 01:00:00 7.2 17 Nordeste 30 Norte 0 -- -- 76
2020-06-09 00:00:00 7.5 12 Nordeste 27 Noroeste 0 -- -- 78
2020-06-08 23:00:00 8.6 15 Norte 30 Norte 0 -- -- 69
2020-06-08 22:00:00 8.5 13 Norte 32 Norte 0 -- -- 73
2020-06-08 21:00:00 9.6 13 Norte 29 Norte 0 -- -- 69
2020-06-08 20:00:00 10 14 Nordeste 30 Nordeste 0 -- -- 70
2020-06-08 19:00:00 10.8 17 Nordeste 35 Norte 0 -- -- 71
2020-06-08 18:00:00 13.5 13 Norte 36 Nordeste 0 -- -- 68
2020-06-08 17:00:00 12.8 16 Nordeste 47 Nordeste 0 -- -- 63
2020-06-08 16:00:00 12.5 17 Nordeste 31 Nordeste 0 -- -- 68
2020-06-08 15:00:00 12.8 8 Norte 42 Nordeste 0 -- -- 61
2020-06-08 14:00:00 11.5 25 Nordeste 37 Nordeste 0 -- -- 70
2020-06-08 13:00:00 11 5 Norte 29 Norte 0 -- -- 73
2020-06-08 12:00:00 11.4 17 Norte 29 Norte 0 -- -- 68
2020-06-08 11:00:00 12.1 12 Nordeste 28 Norte 0 -- -- 63
2020-06-08 10:00:00 10.1 5 Noroeste 19 Noroeste 0 -- -- 74
2020-06-08 09:00:00 8.3 6 Oeste 21 Noroeste 0 -- -- 78
2020-06-08 08:00:00 6.2 7 Noroeste 21 Oeste 0 -- -- 84
2020-06-08 07:00:00 4.9 5 Noroeste 19 Noroeste 0 -- -- 86
2020-06-08 06:00:00 4.2 6 Noroeste 17 Noroeste 0 -- -- 89
2020-06-08 05:00:00 4.2 6 Norte 15 Noroeste 0 -- -- 88
2020-06-08 04:00:00 4.5 8 Norte 14 Noroeste 0 -- -- 86
2020-06-08 03:00:00 5.3 5 Noroeste 16 Noroeste 0 -- -- 82
2020-06-08 02:00:00 5 8 Norte 23 Norte 0 -- -- 80
2020-06-08 01:00:00 5.6 16 Norte 32 Noroeste 0 -- -- 76
2020-06-08 00:00:00 6.5 19 Norte 40 Nordeste 0 -- -- 72
2020-06-07 23:00:00 6.9 18 Norte 32 Norte 0 -- -- 81
2020-06-07 22:00:00 6.9 17 Norte 35 Norte 0 -- -- 81
2020-06-07 21:00:00 7.5 13 Norte 40 Norte 0 -- -- 80
2020-06-07 20:00:00 8.3 19 Norte 32 Norte 0 -- -- 76
2020-06-07 19:00:00 9.7 17 Norte 38 Norte 0 -- -- 69
2020-06-07 18:00:00 10.1 18 Nordeste 37 Norte 0 -- -- 67
2020-06-07 17:00:00 11 18 Nordeste 36 Nordeste 0 -- -- 64
2020-06-07 16:00:00 11.5 24 Norte 36 Norte 0 -- -- 63
2020-06-07 15:00:00 11.7 23 Norte 36 Nordeste 0 -- -- 62
2020-06-07 14:00:00 12.7 24 Nordeste 36 Norte 0 -- -- 60
2020-06-07 13:00:00 13.5 18 Norte 37 Norte 0 -- -- 59
2020-06-07 12:00:00 12.5 22 Norte 39 Norte 0 -- -- 59
2020-06-07 11:00:00 12.7 19 Norte 27 Norte 0 -- -- 62
2020-06-07 10:00:00 13.6 13 Nordeste 25 Nordeste 0 -- -- 61
2020-06-07 09:00:00 12.1 10 Norte 18 Norte 0 -- -- 63
2020-06-07 08:00:00 7.8 10 Norte 16 Norte 0 -- -- 81
2020-06-07 07:00:00 7.6 8 Norte 15 Norte 0 -- -- 85
2020-06-07 06:00:00 6.6 8 Norte 14 Norte 0 -- -- 91
2020-06-07 05:00:00 6.9 7 Norte 9 Norte 0 -- -- 94
2020-06-07 04:00:00 6.6 5 Norte 8 Norte 0 -- -- 95
2020-06-07 03:00:00 8.1 2 Nordeste 19 Norte 0 -- -- 86
2020-06-07 02:00:00 9.5 7 Noroeste 25 Noroeste 0 -- -- 79
2020-06-07 01:00:00 9.9 11 Noroeste 22 Norte 0 -- -- 80
2020-06-07 00:00:00 10.1 14 Nordeste 22 Nordeste 0 -- -- 82
2020-06-06 23:00:00 10.9 6 Norte 19 Norte 0 -- -- 82
2020-06-06 22:00:00 11.3 9 Nordeste 26 Norte 0 -- -- 80
2020-06-06 21:00:00 11.9 22 Norte 31 Norte 0 -- -- 78
2020-06-06 20:00:00 11.8 25 Nordeste 38 Nordeste 0 -- -- 82
2020-06-06 19:00:00 14.4 24 Nordeste 46 Nordeste 0 -- -- 73
2020-06-06 18:00:00 15.3 23 Norte 41 Nordeste 0 -- -- 71
2020-06-06 17:00:00 16.9 18 Norte 42 Nordeste 0 -- -- 66
2020-06-06 16:00:00 19.6 16 Norte 31 Norte 0 -- -- 57
2020-06-06 15:00:00 22.1 13 Norte 21 Norte 0 -- -- 51
2020-06-06 14:00:00 19.5 9 Sur 13 Sur 0 -- -- 53
2020-06-06 13:00:00 19.7 3 Sudoeste 18 Sur 0 -- -- 51
2020-06-06 12:00:00 19.9 13 Sur 18 Sur 0 -- -- 53
2020-06-06 11:00:00 19.3 4 Sur 7 Sur 0 -- -- 53
2020-06-06 10:00:00 18.8 4 Norte 9 Norte 0 -- -- 57
2020-06-06 09:00:00 16.7 0 Calma 10 Norte 0 -- -- 65
2020-06-06 08:00:00 11.5 0 Calma 6 Norte 0 -- -- 86
2020-06-06 07:00:00 7.3 2 Nordeste 9 Norte 0 -- -- 100
2020-06-06 06:00:00 8.1 0 Calma 8 Nordeste 0 -- -- 100
2020-06-06 05:00:00 7.9 3 Este 9 Este 0 -- -- 100
2020-06-06 04:00:00 8.4 4 Nordeste 10 Norte 0 -- -- 100
2020-06-06 03:00:00 9.2 5 Nordeste 13 Nordeste 0 -- -- 100
2020-06-06 02:00:00 10.3 4 Nordeste 10 Este 0 -- -- 100
2020-06-06 01:00:00 11.9 2 Norte 9 Norte 0 -- -- 88
2020-06-06 00:00:00 13.1 4 Noroeste 13 Norte 0 -- -- 83
2020-06-05 23:00:00 13.7 5 Noroeste 10 Noroeste 0 -- -- 81
2020-06-05 22:00:00 16 4 Noroeste 22 Norte 0 -- -- 70
2020-06-05 21:00:00 18.4 7 Noroeste 19 Oeste 0 -- -- 60
2020-06-05 20:00:00 21 9 Norte 20 Norte 0 -- -- 51
2020-06-05 19:00:00 23 8 Oeste 18 Noroeste 0 -- -- 43
2020-06-05 18:00:00 23.4 9 Norte 26 Norte 0 -- -- 45
2020-06-05 17:00:00 23.1 17 Norte 25 Norte 0 -- -- 44
2020-06-05 16:00:00 22.8 10 Sudoeste 20 Sudoeste 0 -- -- 45
2020-06-05 15:00:00 21.7 10 Sur 21 Sur 0 -- -- 48
2020-06-05 14:00:00 20.3 13 Sur 18 Sur 0 -- -- 50
2020-06-05 13:00:00 19.4 12 Sur 14 Sur 0 -- -- 51
2020-06-05 12:00:00 18.1 5 Sudeste 9 Sudeste 0 -- -- 46
2020-06-05 11:00:00 17.2 3 Sudoeste 11 Noroeste 0 -- -- 45
2020-06-05 10:00:00 13.4 5 Norte 13 Norte 0 -- -- 53
2020-06-05 09:00:00 11.1 5 Norte 13 Norte 0 -- -- 62
2020-06-05 08:00:00 7.2 7 Nordeste 12 Norte 0 -- -- 80
2020-06-05 07:00:00 2.3 3 Este 9 Este 0 -- -- 100
2020-06-05 06:00:00 2.8 3 Nordeste 11 Nordeste 0 -- -- 100
2020-06-05 05:00:00 2.6 6 Nordeste 9 Noroeste 0 -- -- 100
2020-06-05 04:00:00 4.1 4 Norte 9 Norte 0 -- -- 99
2020-06-05 03:00:00 4.5 4 Noroeste 16 Noroeste 0 -- -- 98
2020-06-05 02:00:00 5.5 3 Noroeste 8 Norte 0 -- -- 93
2020-06-05 01:00:00 6.1 4 Norte 14 Noroeste 0 -- -- 91
2020-06-05 00:00:00 6.9 0 Calma 21 Norte 0 -- -- 83
2020-06-04 23:00:00 7.6 10 Norte 19 Noroeste 0 -- -- 82
2020-06-04 22:00:00 8.7 9 Norte 17 Nordeste 0 -- -- 82
2020-06-04 21:00:00 9.8 8 Noroeste 27 Norte 0 -- -- 79
2020-06-04 20:00:00 10.1 10 Norte 18 Norte 0.8 -- -- 86
2020-06-04 19:00:00 11.7 8 Noroeste 26 Norte 0 -- -- 74
2020-06-04 18:00:00 11.8 11 Oeste 35 Norte 0 -- -- 74
2020-06-04 17:00:00 12.8 9 Oeste 26 Noroeste 0 -- -- 70
2020-06-04 16:00:00 11.7 12 Oeste 36 Oeste 0 -- -- 70
2020-06-04 15:00:00 12.8 12 Oeste 30 Noroeste 0 -- -- 62
2020-06-04 14:00:00 13.6 9 Oeste 35 Noroeste 0 -- -- 66
2020-06-04 13:00:00 12 11 Oeste 34 Noroeste 0 -- -- 68
2020-06-04 12:00:00 10.4 12 Oeste 36 Noroeste 0 -- -- 74
2020-06-04 11:00:00 9 8 Noroeste 20 Noroeste 0.6 -- -- 86
2020-06-04 10:00:00 10.7 7 Noroeste 33 Noroeste 0 -- -- 83
2020-06-04 09:00:00 8.8 11 Noroeste 28 Noroeste 0.2 -- -- 82
2020-06-04 08:00:00 8.1 8 Oeste 19 Oeste 0.2 -- -- 95
2020-06-04 07:00:00 8.8 4 Oeste 15 Sudoeste 0 -- -- 80
2020-06-04 06:00:00 7.8 4 Noroeste 17 Oeste 0 -- -- 84
2020-06-04 05:00:00 8.5 7 Noroeste 21 Oeste 0 -- -- 76
2020-06-04 04:00:00 9.1 6 Noroeste 26 Noroeste 0 -- -- 72
2020-06-04 03:00:00 10.2 12 Noroeste 30 Noroeste 0 -- -- 59
2020-06-04 02:00:00 10.2 6 Noroeste 23 Noroeste 0 -- -- 65
2020-06-04 01:00:00 10.5 9 Noroeste 24 Noroeste 0 -- -- 66
2020-06-04 00:00:00 10.7 13 Norte 29 Noroeste 0 -- -- 68
2020-06-03 23:00:00 10.9 5 Norte 17 Oeste 0 -- -- 62
2020-06-03 22:00:00 11.4 8 Nordeste 34 Norte 0 -- -- 67
2020-06-03 21:00:00 13.5 15 Norte 38 Norte 0 -- -- 63
2020-06-03 20:00:00 14.9 22 Norte 40 Norte 0 -- -- 73
2020-06-03 19:00:00 16.8 21 Norte 41 Norte 0 -- -- 66
2020-06-03 18:00:00 19.8 21 Noroeste 45 Noroeste 0 -- -- 55
2020-06-03 17:00:00 20.3 26 Noroeste 48 Noroeste 0 -- -- 57
2020-06-03 16:00:00 19.1 19 Norte 33 Noroeste 0 -- -- 62
2020-06-03 15:00:00 20 13 Nordeste 30 Nordeste 0 -- -- 64
2020-06-03 14:00:00 19.9 22 Nordeste 35 Nordeste 0.4 -- -- 69
2020-06-03 13:00:00 18.5 15 Norte 27 Norte 0 -- -- 69
2020-06-03 12:00:00 20.6 6 Sudeste 9 Sudeste 0 -- -- 71
2020-06-03 11:00:00 20 4 Norte 14 Noroeste 0 -- -- 72
2020-06-03 10:00:00 16.9 7 Noroeste 15 Noroeste 0 -- -- 85
2020-06-03 09:00:00 15.2 8 Norte 16 Noroeste 0 -- -- 92
2020-06-03 08:00:00 13.2 6 Norte 11 Norte 0 -- -- 100
2020-06-03 07:00:00 10.9 4 Norte 8 Norte 0 -- -- 100
2020-06-03 06:00:00 11 4 Nordeste 7 Norte 0 -- -- 100
2020-06-03 05:00:00 11.8 6 Norte 11 Norte 0 -- -- 100
2020-06-03 04:00:00 12 4 Nordeste 9 Norte 0 -- -- 100
2020-06-03 03:00:00 12.9 4 Norte 10 Nordeste 0 -- -- 100
2020-06-03 02:00:00 13.6 3 Nordeste 8 Nordeste 0 -- -- 97
2020-06-03 01:00:00 13.9 5 Nordeste 8 Nordeste 0 -- -- 96
2020-06-03 00:00:00 15.1 4 Norte 12 Este 0 -- -- 90